sensor_id;sensor_type;location;lat;lon;timestamp;P1;durP1;ratioP1;P2;durP2;ratioP2
60665;SDS011;59128;44.642;21.188;2023-07-20T00:01:23;6.30;;;3.20;;
60665;SDS011;59128;44.642;21.188;2023-07-20T00:03:49;6.22;;;3.08;;
60665;SDS011;59128;44.642;21.188;2023-07-20T00:06:20;6.87;;;3.10;;
60665;SDS011;59128;44.642;21.188;2023-07-20T00:08:46;5.70;;;2.42;;
60665;SDS011;59128;44.642;21.188;2023-07-20T00:11:13;4.60;;;2.47;;
60665;SDS011;59128;44.642;21.188;2023-07-20T00:13:39;5.10;;;2.60;;
60665;SDS011;59128;44.642;21.188;2023-07-20T00:16:05;6.20;;;3.10;;
60665;SDS011;59128;44.642;21.188;2023-07-20T00:18:32;5.30;;;3.20;;
60665;SDS011;59128;44.642;21.188;2023-07-20T00:20:58;7.37;;;3.77;;
60665;SDS011;59128;44.642;21.188;2023-07-20T00:23:27;8.10;;;3.57;;
60665;SDS011;59128;44.642;21.188;2023-07-20T00:25:53;6.07;;;3.58;;
60665;SDS011;59128;44.642;21.188;2023-07-20T00:28:19;7.03;;;3.00;;
60665;SDS011;59128;44.642;21.188;2023-07-20T00:30:45;5.90;;;2.95;;
60665;SDS011;59128;44.642;21.188;2023-07-20T00:33:11;7.30;;;2.83;;
60665;SDS011;59128;44.642;21.188;2023-07-20T00:35:38;7.45;;;2.90;;
60665;SDS011;59128;44.642;21.188;2023-07-20T00:38:04;5.47;;;2.92;;
60665;SDS011;59128;44.642;21.188;2023-07-20T00:40:37;8.93;;;3.50;;
60665;SDS011;59128;44.642;21.188;2023-07-20T00:43:03;5.35;;;2.83;;
60665;SDS011;59128;44.642;21.188;2023-07-20T00:45:29;4.25;;;2.67;;
60665;SDS011;59128;44.642;21.188;2023-07-20T00:47:55;6.47;;;2.80;;
60665;SDS011;59128;44.642;21.188;2023-07-20T00:50:22;6.72;;;2.63;;
60665;SDS011;59128;44.642;21.188;2023-07-20T00:52:49;6.30;;;3.05;;
60665;SDS011;59128;44.642;21.188;2023-07-20T00:55:15;6.47;;;2.58;;
60665;SDS011;59128;44.642;21.188;2023-07-20T00:57:41;6.20;;;2.85;;
60665;SDS011;59128;44.642;21.188;2023-07-20T01:00:07;4.78;;;2.85;;
60665;SDS011;59128;44.642;21.188;2023-07-20T01:02:34;5.47;;;2.88;;
60665;SDS011;59128;44.642;21.188;2023-07-20T01:05:00;5.80;;;2.85;;
60665;SDS011;59128;44.642;21.188;2023-07-20T01:07:29;5.18;;;3.03;;
60665;SDS011;59128;44.642;21.188;2023-07-20T01:12:25;6.28;;;3.17;;
60665;SDS011;59128;44.642;21.188;2023-07-20T01:14:52;5.20;;;2.92;;
60665;SDS011;59128;44.642;21.188;2023-07-20T01:17:19;4.10;;;2.55;;
60665;SDS011;59128;44.642;21.188;2023-07-20T01:19:45;4.90;;;2.55;;
60665;SDS011;59128;44.642;21.188;2023-07-20T01:32:36;5.00;;;2.70;;
60665;SDS011;59128;44.642;21.188;2023-07-20T01:35:05;6.45;;;2.83;;
60665;SDS011;59128;44.642;21.188;2023-07-20T01:37:31;5.60;;;2.53;;
60665;SDS011;59128;44.642;21.188;2023-07-20T01:39:58;7.07;;;2.70;;
60665;SDS011;59128;44.642;21.188;2023-07-20T01:42:25;5.18;;;2.47;;
60665;SDS011;59128;44.642;21.188;2023-07-20T01:44:51;7.40;;;2.80;;
60665;SDS011;59128;44.642;21.188;2023-07-20T01:47:18;5.30;;;2.10;;
60665;SDS011;59128;44.642;21.188;2023-07-20T01:49:44;6.38;;;2.80;;
60665;SDS011;59128;44.642;21.188;2023-07-20T01:52:10;6.60;;;2.80;;
60665;SDS011;59128;44.642;21.188;2023-07-20T01:54:36;7.63;;;2.70;;
60665;SDS011;59128;44.642;21.188;2023-07-20T01:57:03;6.95;;;2.72;;
60665;SDS011;59128;44.642;21.188;2023-07-20T01:59:29;7.30;;;3.00;;
60665;SDS011;59128;44.642;21.188;2023-07-20T02:01:55;8.03;;;3.00;;
60665;SDS011;59128;44.642;21.188;2023-07-20T02:04:21;7.20;;;2.70;;
60665;SDS011;59128;44.642;21.188;2023-07-20T02:06:47;6.10;;;2.90;;
60665;SDS011;59128;44.642;21.188;2023-07-20T02:09:13;5.75;;;2.58;;
60665;SDS011;59128;44.642;21.188;2023-07-20T02:11:39;7.75;;;2.80;;
60665;SDS011;59128;44.642;21.188;2023-07-20T02:14:05;8.23;;;2.92;;
60665;SDS011;59128;44.642;21.188;2023-07-20T02:16:31;6.88;;;2.80;;
60665;SDS011;59128;44.642;21.188;2023-07-20T02:18:57;8.27;;;3.17;;
60665;SDS011;59128;44.642;21.188;2023-07-20T02:21:23;6.53;;;2.80;;
60665;SDS011;59128;44.642;21.188;2023-07-20T02:23:49;9.00;;;3.10;;
60665;SDS011;59128;44.642;21.188;2023-07-20T02:26:15;7.43;;;2.60;;
60665;SDS011;59128;44.642;21.188;2023-07-20T02:28:41;7.47;;;2.85;;
60665;SDS011;59128;44.642;21.188;2023-07-20T02:31:07;8.30;;;2.78;;
60665;SDS011;59128;44.642;21.188;2023-07-20T02:33:33;8.48;;;3.10;;
60665;SDS011;59128;44.642;21.188;2023-07-20T02:35:59;8.93;;;2.92;;
60665;SDS011;59128;44.642;21.188;2023-07-20T02:38:25;8.05;;;3.20;;
60665;SDS011;59128;44.642;21.188;2023-07-20T02:40:51;8.87;;;3.10;;
60665;SDS011;59128;44.642;21.188;2023-07-20T02:43:17;7.93;;;2.77;;
60665;SDS011;59128;44.642;21.188;2023-07-20T02:45:43;7.55;;;2.80;;
60665;SDS011;59128;44.642;21.188;2023-07-20T02:48:09;8.45;;;3.22;;
60665;SDS011;59128;44.642;21.188;2023-07-20T02:50:36;6.00;;;3.05;;
60665;SDS011;59128;44.642;21.188;2023-07-20T02:53:02;9.65;;;3.47;;
60665;SDS011;59128;44.642;21.188;2023-07-20T02:55:28;8.32;;;3.30;;
60665;SDS011;59128;44.642;21.188;2023-07-20T02:57:54;8.75;;;3.40;;
60665;SDS011;59128;44.642;21.188;2023-07-20T03:00:20;8.00;;;3.17;;
60665;SDS011;59128;44.642;21.188;2023-07-20T03:02:48;7.43;;;2.90;;
60665;SDS011;59128;44.642;21.188;2023-07-20T03:05:17;7.40;;;3.15;;
60665;SDS011;59128;44.642;21.188;2023-07-20T03:07:43;8.85;;;3.50;;
60665;SDS011;59128;44.642;21.188;2023-07-20T03:10:10;6.80;;;2.87;;
60665;SDS011;59128;44.642;21.188;2023-07-20T03:12:36;10.25;;;3.30;;
60665;SDS011;59128;44.642;21.188;2023-07-20T03:15:02;9.07;;;3.25;;
60665;SDS011;59128;44.642;21.188;2023-07-20T03:17:29;7.45;;;3.50;;
60665;SDS011;59128;44.642;21.188;2023-07-20T03:19:55;7.53;;;3.38;;
60665;SDS011;59128;44.642;21.188;2023-07-20T03:22:21;9.52;;;3.95;;
60665;SDS011;59128;44.642;21.188;2023-07-20T03:24:47;11.43;;;4.80;;
60665;SDS011;59128;44.642;21.188;2023-07-20T03:27:13;12.32;;;4.63;;
60665;SDS011;59128;44.642;21.188;2023-07-20T03:29:39;11.02;;;4.70;;
60665;SDS011;59128;44.642;21.188;2023-07-20T03:32:05;8.95;;;3.55;;
60665;SDS011;59128;44.642;21.188;2023-07-20T03:34:31;8.40;;;3.33;;
60665;SDS011;59128;44.642;21.188;2023-07-20T03:36:57;8.52;;;3.17;;
60665;SDS011;59128;44.642;21.188;2023-07-20T03:39:24;5.97;;;2.72;;
60665;SDS011;59128;44.642;21.188;2023-07-20T03:41:50;8.35;;;3.28;;
60665;SDS011;59128;44.642;21.188;2023-07-20T03:44:16;6.60;;;2.88;;
60665;SDS011;59128;44.642;21.188;2023-07-20T03:46:42;6.80;;;3.40;;
60665;SDS011;59128;44.642;21.188;2023-07-20T03:49:08;8.82;;;3.20;;
60665;SDS011;59128;44.642;21.188;2023-07-20T03:51:35;6.53;;;3.20;;
60665;SDS011;59128;44.642;21.188;2023-07-20T03:54:01;6.82;;;2.80;;
60665;SDS011;59128;44.642;21.188;2023-07-20T03:56:27;7.47;;;3.40;;
60665;SDS011;59128;44.642;21.188;2023-07-20T03:58:53;6.18;;;2.83;;
60665;SDS011;59128;44.642;21.188;2023-07-20T04:01:19;6.30;;;2.92;;
60665;SDS011;59128;44.642;21.188;2023-07-20T04:03:45;7.65;;;3.05;;
60665;SDS011;59128;44.642;21.188;2023-07-20T04:06:11;6.07;;;2.80;;
60665;SDS011;59128;44.642;21.188;2023-07-20T04:08:39;5.40;;;2.63;;
60665;SDS011;59128;44.642;21.188;2023-07-20T04:11:05;6.88;;;2.80;;
60665;SDS011;59128;44.642;21.188;2023-07-20T04:13:31;6.75;;;3.05;;
60665;SDS011;59128;44.642;21.188;2023-07-20T04:16:00;5.50;;;2.78;;
60665;SDS011;59128;44.642;21.188;2023-07-20T04:18:27;6.40;;;2.90;;
60665;SDS011;59128;44.642;21.188;2023-07-20T04:20:53;6.53;;;3.10;;
60665;SDS011;59128;44.642;21.188;2023-07-20T04:23:19;5.70;;;2.80;;
60665;SDS011;59128;44.642;21.188;2023-07-20T04:25:45;6.93;;;3.05;;
60665;SDS011;59128;44.642;21.188;2023-07-20T04:28:12;6.40;;;2.80;;
60665;SDS011;59128;44.642;21.188;2023-07-20T04:30:38;7.20;;;3.08;;
60665;SDS011;59128;44.642;21.188;2023-07-20T04:33:05;8.43;;;3.22;;
60665;SDS011;59128;44.642;21.188;2023-07-20T04:35:47;8.70;;;3.40;;
60665;SDS011;59128;44.642;21.188;2023-07-20T04:38:14;9.05;;;3.30;;
60665;SDS011;59128;44.642;21.188;2023-07-20T04:40:42;10.27;;;3.92;;
60665;SDS011;59128;44.642;21.188;2023-07-20T04:43:08;6.77;;;3.20;;
60665;SDS011;59128;44.642;21.188;2023-07-20T04:45:34;9.30;;;3.40;;
60665;SDS011;59128;44.642;21.188;2023-07-20T04:48:00;8.70;;;3.60;;
60665;SDS011;59128;44.642;21.188;2023-07-20T04:50:26;7.50;;;3.58;;
60665;SDS011;59128;44.642;21.188;2023-07-20T04:52:52;10.07;;;4.40;;
60665;SDS011;59128;44.642;21.188;2023-07-20T04:55:18;8.80;;;3.95;;
60665;SDS011;59128;44.642;21.188;2023-07-20T04:57:45;7.35;;;3.90;;
60665;SDS011;59128;44.642;21.188;2023-07-20T05:00:11;11.18;;;4.15;;
60665;SDS011;59128;44.642;21.188;2023-07-20T05:02:38;8.30;;;4.20;;
60665;SDS011;59128;44.642;21.188;2023-07-20T05:05:04;8.03;;;4.60;;
60665;SDS011;59128;44.642;21.188;2023-07-20T05:07:34;7.63;;;4.22;;
60665;SDS011;59128;44.642;21.188;2023-07-20T05:10:00;7.90;;;4.22;;
60665;SDS011;59128;44.642;21.188;2023-07-20T05:12:26;8.23;;;4.35;;
60665;SDS011;59128;44.642;21.188;2023-07-20T05:14:52;10.43;;;4.90;;
60665;SDS011;59128;44.642;21.188;2023-07-20T05:17:18;10.53;;;5.00;;
60665;SDS011;59128;44.642;21.188;2023-07-20T05:19:44;11.35;;;5.30;;
60665;SDS011;59128;44.642;21.188;2023-07-20T05:22:10;9.35;;;4.70;;
60665;SDS011;59128;44.642;21.188;2023-07-20T05:24:37;9.90;;;4.63;;
60665;SDS011;59128;44.642;21.188;2023-07-20T05:27:03;10.50;;;4.72;;
60665;SDS011;59128;44.642;21.188;2023-07-20T05:29:29;10.55;;;4.75;;
60665;SDS011;59128;44.642;21.188;2023-07-20T05:31:55;8.75;;;4.88;;
60665;SDS011;59128;44.642;21.188;2023-07-20T05:34:21;10.35;;;4.82;;
60665;SDS011;59128;44.642;21.188;2023-07-20T05:39:35;9.93;;;4.38;;
60665;SDS011;59128;44.642;21.188;2023-07-20T05:42:01;9.68;;;4.70;;
60665;SDS011;59128;44.642;21.188;2023-07-20T05:44:27;10.82;;;4.50;;
60665;SDS011;59128;44.642;21.188;2023-07-20T05:46:53;9.80;;;4.95;;
60665;SDS011;59128;44.642;21.188;2023-07-20T05:49:19;7.25;;;4.38;;
60665;SDS011;59128;44.642;21.188;2023-07-20T05:51:45;9.30;;;4.55;;
60665;SDS011;59128;44.642;21.188;2023-07-20T05:54:12;8.30;;;4.65;;
60665;SDS011;59128;44.642;21.188;2023-07-20T05:56:38;10.63;;;4.78;;
60665;SDS011;59128;44.642;21.188;2023-07-20T05:59:04;10.88;;;4.68;;
60665;SDS011;59128;44.642;21.188;2023-07-20T06:01:30;10.00;;;5.35;;
60665;SDS011;59128;44.642;21.188;2023-07-20T06:03:56;8.10;;;4.53;;
60665;SDS011;59128;44.642;21.188;2023-07-20T06:06:22;10.63;;;5.40;;
60665;SDS011;59128;44.642;21.188;2023-07-20T06:08:48;8.25;;;5.72;;
60665;SDS011;59128;44.642;21.188;2023-07-20T06:11:14;9.17;;;6.30;;
60665;SDS011;59128;44.642;21.188;2023-07-20T06:13:41;8.70;;;5.55;;
60665;SDS011;59128;44.642;21.188;2023-07-20T06:16:08;9.30;;;5.80;;
60665;SDS011;59128;44.642;21.188;2023-07-20T06:18:34;10.05;;;6.15;;
60665;SDS011;59128;44.642;21.188;2023-07-20T06:21:00;9.10;;;5.53;;
60665;SDS011;59128;44.642;21.188;2023-07-20T06:23:26;9.90;;;5.60;;
60665;SDS011;59128;44.642;21.188;2023-07-20T06:25:52;9.18;;;5.55;;
60665;SDS011;59128;44.642;21.188;2023-07-20T06:28:18;8.60;;;5.53;;
60665;SDS011;59128;44.642;21.188;2023-07-20T06:30:44;7.32;;;5.55;;
60665;SDS011;59128;44.642;21.188;2023-07-20T06:33:11;10.05;;;5.30;;
60665;SDS011;59128;44.642;21.188;2023-07-20T06:35:37;8.88;;;5.47;;
60665;SDS011;59128;44.642;21.188;2023-07-20T06:38:03;9.07;;;5.38;;
60665;SDS011;59128;44.642;21.188;2023-07-20T06:40:32;8.43;;;5.30;;
60665;SDS011;59128;44.642;21.188;2023-07-20T06:42:58;9.82;;;5.50;;
60665;SDS011;59128;44.642;21.188;2023-07-20T06:45:25;8.52;;;5.55;;
60665;SDS011;59128;44.642;21.188;2023-07-20T06:47:51;11.27;;;7.30;;
60665;SDS011;59128;44.642;21.188;2023-07-20T06:50:17;10.37;;;6.83;;
60665;SDS011;59128;44.642;21.188;2023-07-20T06:52:43;11.38;;;6.93;;
60665;SDS011;59128;44.642;21.188;2023-07-20T06:55:11;12.85;;;7.93;;
60665;SDS011;59128;44.642;21.188;2023-07-20T06:57:37;12.95;;;8.70;;
60665;SDS011;59128;44.642;21.188;2023-07-20T07:00:03;19.80;;;12.20;;
60665;SDS011;59128;44.642;21.188;2023-07-20T07:02:31;28.60;;;18.15;;
60665;SDS011;59128;44.642;21.188;2023-07-20T07:04:57;12.20;;;7.90;;
60665;SDS011;59128;44.642;21.188;2023-07-20T07:07:23;16.97;;;12.53;;
60665;SDS011;59128;44.642;21.188;2023-07-20T07:09:49;11.40;;;7.23;;
60665;SDS011;59128;44.642;21.188;2023-07-20T07:12:15;7.63;;;6.30;;
60665;SDS011;59128;44.642;21.188;2023-07-20T07:14:41;11.47;;;6.90;;
60665;SDS011;59128;44.642;21.188;2023-07-20T07:17:07;12.27;;;7.30;;
60665;SDS011;59128;44.642;21.188;2023-07-20T07:19:33;9.07;;;7.40;;
60665;SDS011;59128;44.642;21.188;2023-07-20T07:22:01;15.80;;;11.98;;
60665;SDS011;59128;44.642;21.188;2023-07-20T07:24:27;10.18;;;7.28;;
60665;SDS011;59128;44.642;21.188;2023-07-20T07:26:58;14.75;;;8.43;;
60665;SDS011;59128;44.642;21.188;2023-07-20T07:29:24;9.98;;;8.25;;
60665;SDS011;59128;44.642;21.188;2023-07-20T07:31:50;15.43;;;9.82;;
60665;SDS011;59128;44.642;21.188;2023-07-20T07:34:16;9.85;;;7.50;;
60665;SDS011;59128;44.642;21.188;2023-07-20T07:36:43;12.27;;;8.35;;
60665;SDS011;59128;44.642;21.188;2023-07-20T07:39:09;9.52;;;7.88;;
60665;SDS011;59128;44.642;21.188;2023-07-20T07:41:35;10.02;;;8.05;;
60665;SDS011;59128;44.642;21.188;2023-07-20T07:44:01;9.27;;;8.30;;
60665;SDS011;59128;44.642;21.188;2023-07-20T07:46:27;9.38;;;7.35;;
60665;SDS011;59128;44.642;21.188;2023-07-20T07:48:53;9.57;;;6.82;;
60665;SDS011;59128;44.642;21.188;2023-07-20T07:51:19;8.30;;;7.38;;
60665;SDS011;59128;44.642;21.188;2023-07-20T07:53:45;8.93;;;6.70;;
60665;SDS011;59128;44.642;21.188;2023-07-20T07:56:12;10.55;;;7.20;;
60665;SDS011;59128;44.642;21.188;2023-07-20T07:58:38;10.73;;;7.10;;
60665;SDS011;59128;44.642;21.188;2023-07-20T08:01:04;9.43;;;7.40;;
60665;SDS011;59128;44.642;21.188;2023-07-20T08:03:30;9.65;;;7.15;;
60665;SDS011;59128;44.642;21.188;2023-07-20T08:05:56;12.88;;;8.05;;
60665;SDS011;59128;44.642;21.188;2023-07-20T08:08:23;11.43;;;7.43;;
60665;SDS011;59128;44.642;21.188;2023-07-20T08:10:50;10.38;;;7.20;;
60665;SDS011;59128;44.642;21.188;2023-07-20T08:13:19;11.88;;;8.00;;
60665;SDS011;59128;44.642;21.188;2023-07-20T08:15:45;10.80;;;7.90;;
60665;SDS011;59128;44.642;21.188;2023-07-20T08:18:11;11.43;;;8.07;;
60665;SDS011;59128;44.642;21.188;2023-07-20T08:20:37;10.45;;;8.65;;
60665;SDS011;59128;44.642;21.188;2023-07-20T08:23:03;15.80;;;8.50;;
60665;SDS011;59128;44.642;21.188;2023-07-20T08:25:29;15.18;;;10.93;;
60665;SDS011;59128;44.642;21.188;2023-07-20T08:27:55;12.05;;;10.15;;
60665;SDS011;59128;44.642;21.188;2023-07-20T08:30:22;12.02;;;10.82;;
60665;SDS011;59128;44.642;21.188;2023-07-20T08:32:50;13.45;;;10.60;;
60665;SDS011;59128;44.642;21.188;2023-07-20T08:35:17;16.30;;;13.20;;
60665;SDS011;59128;44.642;21.188;2023-07-20T08:37:43;14.85;;;13.43;;
60665;SDS011;59128;44.642;21.188;2023-07-20T08:40:09;16.77;;;12.90;;
60665;SDS011;59128;44.642;21.188;2023-07-20T08:42:36;12.50;;;11.27;;
60665;SDS011;59128;44.642;21.188;2023-07-20T08:45:03;15.25;;;12.48;;
60665;SDS011;59128;44.642;21.188;2023-07-20T08:47:31;14.43;;;11.82;;
60665;SDS011;59128;44.642;21.188;2023-07-20T08:49:57;14.35;;;12.75;;
60665;SDS011;59128;44.642;21.188;2023-07-20T08:52:25;16.63;;;14.75;;
60665;SDS011;59128;44.642;21.188;2023-07-20T08:54:51;17.67;;;14.98;;
60665;SDS011;59128;44.642;21.188;2023-07-20T08:57:18;18.90;;;15.55;;
60665;SDS011;59128;44.642;21.188;2023-07-20T08:59:46;19.73;;;17.00;;
60665;SDS011;59128;44.642;21.188;2023-07-20T09:02:14;19.42;;;17.42;;
60665;SDS011;59128;44.642;21.188;2023-07-20T09:04:43;19.10;;;17.10;;
60665;SDS011;59128;44.642;21.188;2023-07-20T09:07:10;19.25;;;17.25;;
60665;SDS011;59128;44.642;21.188;2023-07-20T09:09:40;20.38;;;18.42;;
60665;SDS011;59128;44.642;21.188;2023-07-20T09:12:12;20.08;;;16.67;;
60665;SDS011;59128;44.642;21.188;2023-07-20T09:14:39;22.83;;;17.60;;
60665;SDS011;59128;44.642;21.188;2023-07-20T09:17:08;18.70;;;16.80;;
60665;SDS011;59128;44.642;21.188;2023-07-20T09:19:38;18.55;;;16.70;;
60665;SDS011;59128;44.642;21.188;2023-07-20T09:22:04;20.55;;;18.35;;
60665;SDS011;59128;44.642;21.188;2023-07-20T09:24:31;20.00;;;17.98;;
60665;SDS011;59128;44.642;21.188;2023-07-20T09:26:58;20.20;;;17.95;;
60665;SDS011;59128;44.642;21.188;2023-07-20T09:29:29;19.73;;;17.10;;
60665;SDS011;59128;44.642;21.188;2023-07-20T09:34:31;18.25;;;16.45;;
60665;SDS011;59128;44.642;21.188;2023-07-20T09:36:58;21.38;;;17.58;;
60665;SDS011;59128;44.642;21.188;2023-07-20T09:39:24;19.40;;;16.58;;
60665;SDS011;59128;44.642;21.188;2023-07-20T09:41:51;19.17;;;16.73;;
60665;SDS011;59128;44.642;21.188;2023-07-20T09:44:17;18.75;;;16.58;;
60665;SDS011;59128;44.642;21.188;2023-07-20T09:46:47;19.67;;;17.60;;
60665;SDS011;59128;44.642;21.188;2023-07-20T09:49:13;17.92;;;16.13;;
60665;SDS011;59128;44.642;21.188;2023-07-20T09:51:40;17.48;;;15.65;;
60665;SDS011;59128;44.642;21.188;2023-07-20T09:54:07;16.13;;;14.63;;
60665;SDS011;59128;44.642;21.188;2023-07-20T09:56:34;16.45;;;14.75;;
60665;SDS011;59128;44.642;21.188;2023-07-20T09:59:00;15.43;;;13.98;;
60665;SDS011;59128;44.642;21.188;2023-07-20T10:01:26;18.20;;;16.30;;
60665;SDS011;59128;44.642;21.188;2023-07-20T10:03:55;15.73;;;14.13;;
60665;SDS011;59128;44.642;21.188;2023-07-20T10:06:26;18.23;;;15.30;;
60665;SDS011;59128;44.642;21.188;2023-07-20T10:08:56;17.98;;;14.27;;
60665;SDS011;59128;44.642;21.188;2023-07-20T10:11:26;14.40;;;13.10;;
60665;SDS011;59128;44.642;21.188;2023-07-20T10:13:54;13.75;;;12.32;;
60665;SDS011;59128;44.642;21.188;2023-07-20T10:16:24;13.10;;;11.65;;
60665;SDS011;59128;44.642;21.188;2023-07-20T10:19:07;16.27;;;12.07;;
60665;SDS011;59128;44.642;21.188;2023-07-20T10:21:33;13.35;;;11.90;;
60665;SDS011;59128;44.642;21.188;2023-07-20T10:24:01;15.18;;;12.25;;
60665;SDS011;59128;44.642;21.188;2023-07-20T10:26:27;13.30;;;12.10;;
60665;SDS011;59128;44.642;21.188;2023-07-20T10:28:54;13.88;;;12.68;;
60665;SDS011;59128;44.642;21.188;2023-07-20T10:31:20;14.70;;;11.98;;
60665;SDS011;59128;44.642;21.188;2023-07-20T10:33:47;13.20;;;11.88;;
60665;SDS011;59128;44.642;21.188;2023-07-20T10:36:15;11.52;;;10.27;;
60665;SDS011;59128;44.642;21.188;2023-07-20T10:38:42;11.85;;;10.65;;
60665;SDS011;59128;44.642;21.188;2023-07-20T10:43:43;11.77;;;10.57;;
60665;SDS011;59128;44.642;21.188;2023-07-20T10:46:10;20.15;;;11.23;;
60665;SDS011;59128;44.642;21.188;2023-07-20T10:48:39;12.57;;;11.38;;
60665;SDS011;59128;44.642;21.188;2023-07-20T10:51:22;15.45;;;11.07;;
60665;SDS011;59128;44.642;21.188;2023-07-20T10:53:49;11.07;;;9.45;;
60665;SDS011;59128;44.642;21.188;2023-07-20T10:56:19;12.07;;;9.48;;
60665;SDS011;59128;44.642;21.188;2023-07-20T10:58:45;11.05;;;9.95;;
60665;SDS011;59128;44.642;21.188;2023-07-20T11:01:17;11.18;;;9.20;;
60665;SDS011;59128;44.642;21.188;2023-07-20T11:03:48;10.10;;;9.13;;
60665;SDS011;59128;44.642;21.188;2023-07-20T11:09:10;9.43;;;8.43;;
60665;SDS011;59128;44.642;21.188;2023-07-20T11:11:39;9.60;;;8.38;;
60665;SDS011;59128;44.642;21.188;2023-07-20T11:14:07;8.02;;;7.20;;
60665;SDS011;59128;44.642;21.188;2023-07-20T11:16:36;10.50;;;9.48;;
60665;SDS011;59128;44.642;21.188;2023-07-20T11:19:03;10.02;;;9.05;;
60665;SDS011;59128;44.642;21.188;2023-07-20T11:21:30;14.88;;;10.13;;
60665;SDS011;59128;44.642;21.188;2023-07-20T11:24:02;12.30;;;8.95;;
60665;SDS011;59128;44.642;21.188;2023-07-20T11:26:28;9.73;;;7.78;;
60665;SDS011;59128;44.642;21.188;2023-07-20T11:28:54;9.00;;;7.53;;
60665;SDS011;59128;44.642;21.188;2023-07-20T11:31:20;7.70;;;6.75;;
60665;SDS011;59128;44.642;21.188;2023-07-20T11:33:46;8.07;;;7.30;;
60665;SDS011;59128;44.642;21.188;2023-07-20T11:36:13;10.45;;;7.53;;
60665;SDS011;59128;44.642;21.188;2023-07-20T11:38:41;11.10;;;7.43;;
60665;SDS011;59128;44.642;21.188;2023-07-20T11:41:10;8.25;;;7.35;;
60665;SDS011;59128;44.642;21.188;2023-07-20T11:43:37;8.02;;;5.88;;
60665;SDS011;59128;44.642;21.188;2023-07-20T11:46:04;8.60;;;6.00;;
60665;SDS011;59128;44.642;21.188;2023-07-20T11:48:31;7.60;;;6.90;;
60665;SDS011;59128;44.642;21.188;2023-07-20T11:50:57;7.47;;;6.60;;
60665;SDS011;59128;44.642;21.188;2023-07-20T11:53:24;7.32;;;6.50;;
60665;SDS011;59128;44.642;21.188;2023-07-20T11:55:50;9.00;;;6.50;;
60665;SDS011;59128;44.642;21.188;2023-07-20T11:58:17;7.50;;;6.80;;
60665;SDS011;59128;44.642;21.188;2023-07-20T12:00:43;7.78;;;6.22;;
60665;SDS011;59128;44.642;21.188;2023-07-20T12:03:11;7.50;;;6.30;;
60665;SDS011;59128;44.642;21.188;2023-07-20T12:05:38;6.15;;;5.55;;
60665;SDS011;59128;44.642;21.188;2023-07-20T12:08:04;7.95;;;5.50;;
60665;SDS011;59128;44.642;21.188;2023-07-20T12:10:30;8.13;;;5.93;;
60665;SDS011;59128;44.642;21.188;2023-07-20T12:13:02;6.47;;;5.88;;
60665;SDS011;59128;44.642;21.188;2023-07-20T12:15:29;8.07;;;6.20;;
60665;SDS011;59128;44.642;21.188;2023-07-20T12:17:57;7.35;;;6.13;;
60665;SDS011;59128;44.642;21.188;2023-07-20T12:22:52;6.10;;;4.82;;
60665;SDS011;59128;44.642;21.188;2023-07-20T12:25:19;6.47;;;5.07;;
60665;SDS011;59128;44.642;21.188;2023-07-20T12:27:45;6.22;;;5.57;;
60665;SDS011;59128;44.642;21.188;2023-07-20T12:30:12;8.60;;;5.25;;
60665;SDS011;59128;44.642;21.188;2023-07-20T12:32:38;6.35;;;5.30;;
60665;SDS011;59128;44.642;21.188;2023-07-20T12:35:05;6.10;;;5.32;;
60665;SDS011;59128;44.642;21.188;2023-07-20T12:37:31;6.28;;;5.07;;
60665;SDS011;59128;44.642;21.188;2023-07-20T12:39:57;6.68;;;5.18;;
60665;SDS011;59128;44.642;21.188;2023-07-20T12:42:23;6.53;;;4.93;;
60665;SDS011;59128;44.642;21.188;2023-07-20T12:44:49;7.63;;;4.50;;
60665;SDS011;59128;44.642;21.188;2023-07-20T12:47:16;5.10;;;4.55;;
60665;SDS011;59128;44.642;21.188;2023-07-20T12:49:43;5.15;;;4.65;;
60665;SDS011;59128;44.642;21.188;2023-07-20T12:52:13;7.30;;;4.45;;
60665;SDS011;59128;44.642;21.188;2023-07-20T12:54:39;7.07;;;4.22;;
60665;SDS011;59128;44.642;21.188;2023-07-20T12:57:05;6.35;;;4.53;;
60665;SDS011;59128;44.642;21.188;2023-07-20T12:59:31;11.10;;;4.30;;
60665;SDS011;59128;44.642;21.188;2023-07-20T13:01:58;5.97;;;4.18;;
60665;SDS011;59128;44.642;21.188;2023-07-20T13:04:24;6.28;;;3.92;;
60665;SDS011;59128;44.642;21.188;2023-07-20T13:06:50;6.00;;;3.53;;
60665;SDS011;59128;44.642;21.188;2023-07-20T13:09:16;8.57;;;3.85;;
60665;SDS011;59128;44.642;21.188;2023-07-20T13:11:42;5.63;;;4.32;;
60665;SDS011;59128;44.642;21.188;2023-07-20T13:14:09;6.60;;;4.82;;
60665;SDS011;59128;44.642;21.188;2023-07-20T13:16:36;6.47;;;4.43;;
60665;SDS011;59128;44.642;21.188;2023-07-20T13:19:02;7.22;;;3.75;;
60665;SDS011;59128;44.642;21.188;2023-07-20T13:21:28;4.97;;;3.78;;
60665;SDS011;59128;44.642;21.188;2023-07-20T13:23:54;5.25;;;3.50;;
60665;SDS011;59128;44.642;21.188;2023-07-20T13:26:20;5.30;;;3.47;;
60665;SDS011;59128;44.642;21.188;2023-07-20T13:28:47;4.18;;;3.47;;
60665;SDS011;59128;44.642;21.188;2023-07-20T13:31:13;4.53;;;3.55;;
60665;SDS011;59128;44.642;21.188;2023-07-20T13:33:39;4.32;;;3.47;;
60665;SDS011;59128;44.642;21.188;2023-07-20T13:36:05;3.63;;;3.20;;
60665;SDS011;59128;44.642;21.188;2023-07-20T13:38:31;4.22;;;3.30;;
60665;SDS011;59128;44.642;21.188;2023-07-20T13:40:57;6.80;;;3.30;;
60665;SDS011;59128;44.642;21.188;2023-07-20T13:43:23;5.40;;;3.72;;
60665;SDS011;59128;44.642;21.188;2023-07-20T13:45:50;5.28;;;3.00;;
60665;SDS011;59128;44.642;21.188;2023-07-20T13:48:16;7.25;;;3.47;;
60665;SDS011;59128;44.642;21.188;2023-07-20T13:50:44;5.68;;;2.95;;
60665;SDS011;59128;44.642;21.188;2023-07-20T13:53:10;3.80;;;3.42;;
60665;SDS011;59128;44.642;21.188;2023-07-20T13:55:38;5.38;;;3.22;;
60665;SDS011;59128;44.642;21.188;2023-07-20T13:58:04;5.20;;;3.20;;
60665;SDS011;59128;44.642;21.188;2023-07-20T14:00:30;3.00;;;2.67;;
60665;SDS011;59128;44.642;21.188;2023-07-20T14:03:01;3.00;;;2.60;;
60665;SDS011;59128;44.642;21.188;2023-07-20T14:05:27;4.90;;;2.85;;
60665;SDS011;59128;44.642;21.188;2023-07-20T14:07:53;5.18;;;3.08;;
60665;SDS011;59128;44.642;21.188;2023-07-20T14:10:19;3.30;;;2.53;;
60665;SDS011;59128;44.642;21.188;2023-07-20T14:12:45;7.28;;;2.90;;
60665;SDS011;59128;44.642;21.188;2023-07-20T14:15:11;3.58;;;2.38;;
60665;SDS011;59128;44.642;21.188;2023-07-20T14:17:37;4.68;;;2.42;;
60665;SDS011;59128;44.642;21.188;2023-07-20T14:20:03;7.07;;;2.58;;
60665;SDS011;59128;44.642;21.188;2023-07-20T14:22:31;3.40;;;2.70;;
60665;SDS011;59128;44.642;21.188;2023-07-20T14:24:57;4.03;;;2.50;;
60665;SDS011;59128;44.642;21.188;2023-07-20T14:27:24;3.72;;;2.40;;
60665;SDS011;59128;44.642;21.188;2023-07-20T14:29:50;4.10;;;2.97;;
60665;SDS011;59128;44.642;21.188;2023-07-20T14:32:16;4.00;;;2.75;;
60665;SDS011;59128;44.642;21.188;2023-07-20T14:34:42;4.65;;;2.58;;
60665;SDS011;59128;44.642;21.188;2023-07-20T14:37:08;4.45;;;2.97;;
60665;SDS011;59128;44.642;21.188;2023-07-20T14:39:34;4.28;;;2.70;;
60665;SDS011;59128;44.642;21.188;2023-07-20T14:42:00;2.95;;;2.60;;
60665;SDS011;59128;44.642;21.188;2023-07-20T14:44:28;5.25;;;2.70;;
60665;SDS011;59128;44.642;21.188;2023-07-20T14:46:54;3.72;;;2.65;;
60665;SDS011;59128;44.642;21.188;2023-07-20T14:49:21;4.55;;;2.55;;
60665;SDS011;59128;44.642;21.188;2023-07-20T14:51:47;4.90;;;2.50;;